createdAt,value
2022-11-08T00:02:24.629Z,61.44
2022-11-08T00:04:51.653Z,61.65
2022-11-08T00:07:37.042Z,61.54
2022-11-08T00:10:23.179Z,61.68
2022-11-08T00:13:08.907Z,61.72
2022-11-08T00:15:39.190Z,61.83
2022-11-08T00:18:07.956Z,61.80
2022-11-08T00:20:35.411Z,61.87
2022-11-08T00:23:02.541Z,61.92
2022-11-08T00:25:29.490Z,61.91
2022-11-08T00:27:56.419Z,62.06
2022-11-08T00:30:23.454Z,62.21
2022-11-08T00:32:50.288Z,62.09
2022-11-08T00:35:17.285Z,62.19
2022-11-08T00:37:44.165Z,62.13
2022-11-08T00:40:12.021Z,62.14
2022-11-08T00:42:38.942Z,62.26
2022-11-08T00:45:06.303Z,62.50
2022-11-08T00:47:33.977Z,62.53
2022-11-08T00:50:00.867Z,62.55
2022-11-08T00:52:28.008Z,62.58
2022-11-08T00:54:54.844Z,62.60
2022-11-08T00:57:27.494Z,62.54
2022-11-08T01:00:08.687Z,62.46
2022-11-08T01:02:35.776Z,62.52
2022-11-08T01:05:02.705Z,62.69
2022-11-08T01:07:29.535Z,62.60
2022-11-08T01:09:56.533Z,62.70
2022-11-08T01:12:23.373Z,62.78
2022-11-08T01:14:50.478Z,62.78
2022-11-08T01:17:17.394Z,62.70
2022-11-08T01:19:44.258Z,62.78
2022-11-08T01:22:11.083Z,62.90
2022-11-08T01:24:38.111Z,62.85
2022-11-08T01:27:05.055Z,62.97
2022-11-08T01:29:33.196Z,62.76
2022-11-08T01:32:00.026Z,63.02
2022-11-08T01:34:26.966Z,63.13
2022-11-08T01:36:53.805Z,63.04
2022-11-08T01:39:20.749Z,63.03
2022-11-08T01:41:47.790Z,63.05
2022-11-08T01:44:17.959Z,63.06
2022-11-08T01:46:48.017Z,63.17
2022-11-08T01:49:33.433Z,63.13
2022-11-08T01:52:12.531Z,63.19
2022-11-08T01:54:46.217Z,63.31
2022-11-08T01:57:20.180Z,63.29
2022-11-08T01:59:51.138Z,63.46
2022-11-08T02:02:18.520Z,63.38
2022-11-08T02:04:45.578Z,63.29
2022-11-08T02:07:14.317Z,63.44
2022-11-08T02:09:45.985Z,63.36
2022-11-08T02:12:13.112Z,63.38
2022-11-08T02:14:40.044Z,63.49
2022-11-08T02:17:08.173Z,63.47
2022-11-08T02:19:53.074Z,63.28
2022-11-08T02:23:12.269Z,63.71
2022-11-08T02:25:39.159Z,63.67
2022-11-08T02:28:06.084Z,63.61
2022-11-08T02:30:34.614Z,63.32
2022-11-08T02:33:01.637Z,63.77
2022-11-08T02:35:28.565Z,63.73
2022-11-08T02:37:55.593Z,63.84
2022-11-08T02:40:22.445Z,63.65
2022-11-08T02:42:49.516Z,63.64
2022-11-08T02:45:16.500Z,63.73
2022-11-08T02:47:44.924Z,63.93
2022-11-08T02:50:11.880Z,63.82
2022-11-08T02:52:38.725Z,63.65
2022-11-08T02:55:05.985Z,63.75
2022-11-08T02:57:33.181Z,63.93
2022-11-08T03:00:00.113Z,63.98
2022-11-08T03:02:27.182Z,63.74
2022-11-08T03:04:54.125Z,63.80
2022-11-08T03:07:24.816Z,63.91
2022-11-08T03:09:52.084Z,63.84
2022-11-08T03:12:20.479Z,63.78
2022-11-08T03:14:47.353Z,63.74
2022-11-08T03:17:14.366Z,63.98
2022-11-08T03:19:41.263Z,63.80
2022-11-08T03:22:08.200Z,63.94
2022-11-08T03:24:35.105Z,63.84
2022-11-08T03:27:03.376Z,63.87
2022-11-08T03:29:30.237Z,63.94
2022-11-08T03:31:57.113Z,64.00
2022-11-08T03:34:24.007Z,63.87
2022-11-08T03:36:50.928Z,63.99
2022-11-08T03:39:17.820Z,63.89
2022-11-08T03:41:45.082Z,63.90
2022-11-08T03:44:11.929Z,64.02
2022-11-08T03:46:38.798Z,63.92
2022-11-08T03:49:05.729Z,63.95
2022-11-08T03:51:32.591Z,63.94
2022-11-08T03:53:59.499Z,63.95
2022-11-08T03:56:26.408Z,64.09
2022-11-08T03:58:53.287Z,64.14
2022-11-08T04:01:20.327Z,63.91
2022-11-08T04:03:47.251Z,63.95
2022-11-08T04:06:14.099Z,64.04
2022-11-08T04:08:40.958Z,64.16
2022-11-08T04:11:26.282Z,64.03
2022-11-08T04:14:12.039Z,63.96
2022-11-08T04:16:38.876Z,63.90
2022-11-08T04:19:24.564Z,63.94
2022-11-08T04:21:53.827Z,64.08
2022-11-08T04:24:21.736Z,64.10
2022-11-08T04:26:48.842Z,63.97
2022-11-08T04:29:15.805Z,63.91
2022-11-08T04:31:42.814Z,64.16
2022-11-08T04:34:09.859Z,63.81
2022-11-08T04:36:36.775Z,63.96
2022-11-08T04:39:04.458Z,64.03
2022-11-08T04:41:31.459Z,64.07
2022-11-08T04:43:58.340Z,63.96
2022-11-08T04:46:27.696Z,64.08
2022-11-08T04:48:56.977Z,63.96
2022-11-08T04:51:28.715Z,64.05
2022-11-08T04:53:57.901Z,64.04
2022-11-08T04:56:25.883Z,64.02
2022-11-08T04:58:55.398Z,64.21
2022-11-08T05:01:25.064Z,64.15
2022-11-08T05:03:53.791Z,64.03
2022-11-08T05:06:23.818Z,64.15
2022-11-08T05:08:51.457Z,64.04
2022-11-08T05:11:21.488Z,64.03
2022-11-08T05:13:49.728Z,64.12
2022-11-08T05:16:19.930Z,64.05
2022-11-08T05:18:47.139Z,64.09
2022-11-08T05:21:35.767Z,64.04
2022-11-08T05:24:04.668Z,63.96
2022-11-08T05:26:34.395Z,64.10
2022-11-08T05:29:01.419Z,64.06
2022-11-08T05:31:28.393Z,63.97
2022-11-08T05:33:55.364Z,64.14
2022-11-08T05:36:22.482Z,63.98
2022-11-08T05:38:49.276Z,63.91
2022-11-08T05:41:21.024Z,64.15
2022-11-08T05:43:50.533Z,64.04
2022-11-08T05:46:18.759Z,64.00
2022-11-08T05:48:47.150Z,64.07
2022-11-08T05:51:16.601Z,64.00
2022-11-08T05:53:43.580Z,63.97
2022-11-08T05:56:10.527Z,63.95
2022-11-08T05:58:37.751Z,63.89
2022-11-08T06:01:10.098Z,64.08
2022-11-08T06:03:37.849Z,63.77
2022-11-08T06:06:10.143Z,63.78
2022-11-08T06:08:37.620Z,63.96
2022-11-08T06:11:19.999Z,64.10
2022-11-08T06:13:46.869Z,63.95
2022-11-08T06:16:15.794Z,64.07
2022-11-08T06:18:43.258Z,64.29
2022-11-08T06:21:15.166Z,64.06
2022-11-08T06:23:42.618Z,64.16
2022-11-08T06:26:10.002Z,64.16
2022-11-08T06:28:36.826Z,64.03
2022-11-08T06:31:04.974Z,63.86
2022-11-08T06:33:32.319Z,63.77
2022-11-08T06:35:59.288Z,63.89
2022-11-08T06:38:26.304Z,63.72
2022-11-08T06:40:53.084Z,63.91
2022-11-08T06:43:20.475Z,63.89
2022-11-08T06:45:47.813Z,63.83
2022-11-08T06:48:14.699Z,63.90
2022-11-08T06:50:42.380Z,63.90
2022-11-08T06:53:12.452Z,63.88
2022-11-08T06:55:39.557Z,63.82
2022-11-08T06:58:06.737Z,63.59
2022-11-08T07:00:33.671Z,63.79
2022-11-08T07:03:03.720Z,63.88
2022-11-08T07:05:32.686Z,63.80
2022-11-08T07:08:00.445Z,63.78
2022-11-08T07:10:29.702Z,63.89
2022-11-08T07:13:02.077Z,63.69
2022-11-08T07:15:30.115Z,63.74
2022-11-08T07:18:16.692Z,64.04
2022-11-08T07:20:44.056Z,63.77
2022-11-08T07:23:11.874Z,63.67
2022-11-08T07:25:39.277Z,62.63
2022-11-08T07:28:08.397Z,60.71
2022-11-08T07:30:36.293Z,61.17
2022-11-08T07:33:03.688Z,60.62
2022-11-08T07:35:30.874Z,60.96
2022-11-08T07:37:57.900Z,61.62
2022-11-08T07:40:25.480Z,62.11
2022-11-08T07:45:40.558Z,62.66
2022-11-08T07:48:12.313Z,62.86
2022-11-08T07:50:41.752Z,63.02
2022-11-08T07:53:09.686Z,63.48
2022-11-08T07:55:37.939Z,63.50
2022-11-08T07:58:06.016Z,63.54
2022-11-08T08:00:38.737Z,63.76
2022-11-08T08:03:07.557Z,63.84
2022-11-08T08:05:39.971Z,63.71
2022-11-08T08:08:07.669Z,63.82
2022-11-08T08:10:35.390Z,63.94
2022-11-08T08:13:02.727Z,64.03
2022-11-08T08:15:29.960Z,63.94
2022-11-08T08:17:59.591Z,64.17
2022-11-08T08:20:26.650Z,64.16
2022-11-08T08:22:53.480Z,63.94
2022-11-08T08:25:20.754Z,63.88
2022-11-08T08:27:49.189Z,63.92
2022-11-08T08:30:17.814Z,64.06
2022-11-08T08:32:50.253Z,64.07
2022-11-08T08:35:20.756Z,64.07
2022-11-08T08:37:47.753Z,64.15
2022-11-08T08:40:15.036Z,63.82
2022-11-08T08:42:42.311Z,63.76
2022-11-08T08:45:14.915Z,63.56
2022-11-08T08:47:42.685Z,64.04
2022-11-08T08:50:10.321Z,64.44
2022-11-08T08:52:37.237Z,64.54
2022-11-08T08:55:04.363Z,64.30
2022-11-08T08:57:31.459Z,64.18
2022-11-08T09:02:45.504Z,64.16
2022-11-08T09:05:13.956Z,64.33
2022-11-08T09:07:41.959Z,64.18
2022-11-08T09:10:10.746Z,64.08
2022-11-08T09:12:38.740Z,64.19
2022-11-08T09:15:08.064Z,64.06
2022-11-08T09:17:35.071Z,64.22
2022-11-08T09:20:02.250Z,64.13
2022-11-08T09:22:29.742Z,64.13
2022-11-08T09:24:56.945Z,64.25
2022-11-08T09:27:24.019Z,64.34
2022-11-08T09:29:51.088Z,64.49
2022-11-08T09:32:24.782Z,64.27
2022-11-08T09:35:00.823Z,64.19
2022-11-08T09:37:29.292Z,64.23
2022-11-08T09:39:56.485Z,64.27
2022-11-08T09:42:26.254Z,64.23
2022-11-08T09:44:59.204Z,64.15
2022-11-08T09:47:36.842Z,64.08
2022-11-08T09:50:23.380Z,63.92
2022-11-08T09:53:01.675Z,63.76
2022-11-08T09:55:42.590Z,63.85
2022-11-08T09:58:12.791Z,63.89
2022-11-08T10:00:41.538Z,64.03
2022-11-08T10:03:15.913Z,63.85
2022-11-08T10:06:06.835Z,64.10
2022-11-08T10:09:18.662Z,64.00
2022-11-08T10:12:18.349Z,63.96
2022-11-08T10:15:38.747Z,63.84
2022-11-08T10:18:17.833Z,63.71
2022-11-08T10:21:11.519Z,63.84
2022-11-08T10:23:47.110Z,63.89
2022-11-08T10:26:30.047Z,63.52
2022-11-08T10:29:03.625Z,63.06
2022-11-08T10:31:35.503Z,63.11
2022-11-08T10:34:05.124Z,63.36
2022-11-08T10:36:42.752Z,63.58
2022-11-08T10:39:09.755Z,63.62
2022-11-08T10:41:53.270Z,63.88
2022-11-08T10:44:25.565Z,63.74
2022-11-08T10:46:59.768Z,63.72
2022-11-08T10:49:47.288Z,63.82
2022-11-08T10:52:17.284Z,63.91
2022-11-08T10:54:52.963Z,63.93
2022-11-08T10:57:38.677Z,63.83
2022-11-08T11:00:27.715Z,64.10
2022-11-08T11:03:06.940Z,64.39
2022-11-08T11:05:41.407Z,64.30
2022-11-08T11:08:08.390Z,64.54
2022-11-08T11:10:45.826Z,64.17
2022-11-08T11:13:25.198Z,63.92
2022-11-08T11:16:01.079Z,64.07
2022-11-08T11:18:28.282Z,64.10
2022-11-08T11:21:24.734Z,63.79
2022-11-08T11:23:55.220Z,64.03
2022-11-08T11:26:44.900Z,63.91
2022-11-08T11:29:24.146Z,63.99
2022-11-08T11:31:54.120Z,63.94
2022-11-08T11:34:36.439Z,64.08
2022-11-08T11:37:15.198Z,64.13
2022-11-08T11:40:11.214Z,64.14
2022-11-08T11:42:48.107Z,64.29
2022-11-08T11:45:33.330Z,63.98
2022-11-08T11:48:10.862Z,63.83
2022-11-08T11:50:40.678Z,64.33
2022-11-08T11:53:28.314Z,64.52
2022-11-08T11:56:04.201Z,64.98
2022-11-08T11:58:44.441Z,65.04
2022-11-08T12:01:43.298Z,65.25
2022-11-08T12:04:34.882Z,64.97
2022-11-08T12:07:27.964Z,64.57
2022-11-08T12:10:12.848Z,64.76
2022-11-08T12:12:51.366Z,64.83
2022-11-08T12:15:37.956Z,64.56
2022-11-08T12:18:07.505Z,64.62
2022-11-08T12:21:12.839Z,64.11
2022-11-08T12:23:56.715Z,63.74
2022-11-08T12:27:04.042Z,63.89
2022-11-08T12:29:47.240Z,63.83
2022-11-08T12:32:31.784Z,64.04
2022-11-08T12:35:25.809Z,64.52
2022-11-08T12:38:17.347Z,64.27
2022-11-08T12:40:44.602Z,64.34
2022-11-08T12:43:24.281Z,64.26
2022-11-08T12:46:19.763Z,64.17
2022-11-08T12:49:01.076Z,63.99
2022-11-08T12:51:53.057Z,63.73
2022-11-08T12:54:30.121Z,63.47
2022-11-08T12:57:02.908Z,63.04
2022-11-08T12:59:37.575Z,63.00
2022-11-08T13:02:12.218Z,62.97
2022-11-08T13:04:56.458Z,62.78
2022-11-08T13:07:28.667Z,62.96
2022-11-08T13:09:58.452Z,63.30
2022-11-08T13:12:37.201Z,62.78
2022-11-08T13:15:06.923Z,63.18
2022-11-08T13:17:33.929Z,63.41
2022-11-08T13:20:05.924Z,63.33
2022-11-08T13:22:32.989Z,62.90
2022-11-08T13:25:09.430Z,62.80
2022-11-08T13:27:43.079Z,62.76
2022-11-08T13:30:15.811Z,62.68
2022-11-08T13:33:01.649Z,62.95
2022-11-08T13:35:39.320Z,63.33
2022-11-08T13:38:28.234Z,63.11
2022-11-08T13:41:04.192Z,63.20
2022-11-08T13:43:33.502Z,63.41
2022-11-08T13:46:31.152Z,63.01
2022-11-08T13:48:58.207Z,62.94
2022-11-08T13:51:29.769Z,62.82
2022-11-08T13:53:58.464Z,62.62
2022-11-08T13:56:27.174Z,62.26
2022-11-08T13:58:54.323Z,61.96
2022-11-08T14:01:21.283Z,61.79
2022-11-08T14:03:48.551Z,61.56
2022-11-08T14:06:28.567Z,61.38
2022-11-08T14:09:40.492Z,61.33
2022-11-08T14:12:22.294Z,61.30
2022-11-08T14:15:23.086Z,61.21
2022-11-08T14:17:54.680Z,61.18
2022-11-08T14:20:30.784Z,60.92
2022-11-08T14:23:02.638Z,60.77
2022-11-08T14:25:34.530Z,60.93
2022-11-08T14:28:01.997Z,60.73
2022-11-08T14:30:29.066Z,60.80
2022-11-08T14:33:18.312Z,60.54
2022-11-08T14:36:01.606Z,61.01
2022-11-08T14:38:30.983Z,60.58
2022-11-08T14:41:07.151Z,61.31
2022-11-08T14:43:44.219Z,61.33
2022-11-08T14:46:19.811Z,61.48
2022-11-08T14:48:52.618Z,61.06
2022-11-08T14:51:19.951Z,61.09
2022-11-08T14:53:49.504Z,61.47
2022-11-08T14:56:37.023Z,61.35
2022-11-08T14:59:10.631Z,61.36
2022-11-08T15:01:38.416Z,61.03
2022-11-08T15:04:19.071Z,61.20
2022-11-08T15:06:49.330Z,61.15
2022-11-08T15:09:29.043Z,60.79
2022-11-08T15:11:59.187Z,60.47
2022-11-08T15:14:29.356Z,60.30
2022-11-08T15:17:02.599Z,59.94
2022-11-08T15:19:34.996Z,60.50
2022-11-08T15:22:04.466Z,60.99
2022-11-08T15:24:40.120Z,60.18
2022-11-08T15:27:13.053Z,60.98
2022-11-08T15:29:53.544Z,60.71
2022-11-08T15:32:22.266Z,60.64
2022-11-08T15:34:54.254Z,60.17
2022-11-08T15:37:27.960Z,59.92
2022-11-08T15:39:55.885Z,59.71
2022-11-08T15:42:23.063Z,59.55
2022-11-08T15:45:01.325Z,59.85
2022-11-08T15:47:43.579Z,59.74
2022-11-08T15:50:31.651Z,59.61
2022-11-08T15:53:00.587Z,56.55
2022-11-08T15:55:30.054Z,55.21
2022-11-08T15:57:59.332Z,56.11
2022-11-08T16:00:38.717Z,57.07
2022-11-08T16:03:05.714Z,57.53
2022-11-08T16:05:32.775Z,57.38
2022-11-08T16:08:00.589Z,57.56
2022-11-08T16:10:41.815Z,57.76
2022-11-08T16:13:19.748Z,58.13
2022-11-08T16:15:47.531Z,58.30
2022-11-08T16:18:15.071Z,58.56
2022-11-08T16:20:42.496Z,58.42
2022-11-08T16:23:11.744Z,58.66
2022-11-08T16:25:46.359Z,58.12
2022-11-08T16:28:41.102Z,58.12
2022-11-08T16:31:14.005Z,58.41
2022-11-08T16:33:43.151Z,58.59
2022-11-08T16:36:24.980Z,58.67
2022-11-08T16:39:03.138Z,58.90
2022-11-08T16:41:32.659Z,58.69
2022-11-08T16:44:00.614Z,58.69
2022-11-08T16:46:31.703Z,59.11
2022-11-08T16:49:00.435Z,58.66
2022-11-08T16:51:28.870Z,58.88
2022-11-08T16:53:55.925Z,58.73
2022-11-08T16:56:23.453Z,58.99
2022-11-08T16:58:51.475Z,59.20
2022-11-08T17:01:23.927Z,58.73
2022-11-08T17:03:51.111Z,58.72
2022-11-08T17:06:19.446Z,58.77
2022-11-08T17:08:46.871Z,58.88
2022-11-08T17:11:20.044Z,58.43
2022-11-08T17:13:48.191Z,58.74
2022-11-08T17:16:16.606Z,58.90
2022-11-08T17:18:47.456Z,59.34
2022-11-08T17:21:43.011Z,59.28
2022-11-08T17:24:04.848Z,59.38
2022-11-08T17:26:31.850Z,59.55
2022-11-08T17:28:58.886Z,59.21
2022-11-08T17:31:26.457Z,59.37
2022-11-08T17:33:55.881Z,59.42
2022-11-08T17:36:23.128Z,59.43
2022-11-08T17:38:50.425Z,59.27
2022-11-08T17:41:18.386Z,59.23
2022-11-08T17:43:47.991Z,59.13
2022-11-08T17:46:15.479Z,59.36
2022-11-08T17:48:42.424Z,59.28
2022-11-08T17:51:09.771Z,59.05
2022-11-08T17:53:36.933Z,58.98
2022-11-08T17:56:06.080Z,59.01
2022-11-08T17:58:34.568Z,58.91
2022-11-08T18:01:04.573Z,58.83
2022-11-08T18:03:32.581Z,58.81
2022-11-08T18:06:00.044Z,58.52
2022-11-08T18:08:29.282Z,59.07
2022-11-08T18:10:56.845Z,59.05
2022-11-08T18:13:27.723Z,59.03
2022-11-08T18:15:54.964Z,59.17
2022-11-08T18:18:22.007Z,59.49
2022-11-08T18:20:55.636Z,59.11
2022-11-08T18:23:25.189Z,59.37
2022-11-08T18:25:53.864Z,59.38
2022-11-08T18:28:22.735Z,59.20
2022-11-08T18:30:50.486Z,59.37
2022-11-08T18:33:19.139Z,59.24
2022-11-08T18:35:47.351Z,58.97
2022-11-08T18:38:15.411Z,59.04
2022-11-08T18:40:46.386Z,59.02
2022-11-08T18:43:13.718Z,58.78
2022-11-08T18:45:43.648Z,58.85
2022-11-08T18:48:12.389Z,58.91
2022-11-08T18:50:40.412Z,58.55
2022-11-08T18:53:10.180Z,58.33
2022-11-08T18:55:37.445Z,58.40
2022-11-08T18:58:04.648Z,58.21
2022-11-08T19:00:32.034Z,57.58
2022-11-08T19:02:59.431Z,58.05
2022-11-08T19:05:26.642Z,58.94
2022-11-08T19:07:55.105Z,58.86
2022-11-08T19:10:22.522Z,58.98
2022-11-08T19:12:49.943Z,58.32
2022-11-08T19:15:17.140Z,58.51
2022-11-08T19:17:49.814Z,58.73
2022-11-08T19:20:20.174Z,58.53
2022-11-08T19:22:47.728Z,58.50
2022-11-08T19:25:17.741Z,58.85
2022-11-08T19:27:45.194Z,58.63
2022-11-08T19:30:13.100Z,58.47
2022-11-08T19:32:40.240Z,58.10
2022-11-08T19:35:08.021Z,58.06
2022-11-08T19:37:35.276Z,57.96
2022-11-08T19:40:02.323Z,57.90
2022-11-08T19:42:29.560Z,57.95
2022-11-08T19:44:56.737Z,57.73
2022-11-08T19:47:23.856Z,57.86
2022-11-08T19:49:50.991Z,56.99
2022-11-08T19:52:18.297Z,57.47
2022-11-08T19:54:46.761Z,57.20
2022-11-08T19:57:13.664Z,57.52
2022-11-08T19:59:41.138Z,57.46
2022-11-08T20:02:09.779Z,57.39
2022-11-08T20:04:37.347Z,57.56
2022-11-08T20:07:04.703Z,57.65
2022-11-08T20:09:36.092Z,57.24
2022-11-08T20:12:06.234Z,57.29
2022-11-08T20:14:34.042Z,56.93
2022-11-08T20:17:01.812Z,56.96
2022-11-08T20:19:29.500Z,57.35
2022-11-08T20:21:58.171Z,57.51
2022-11-08T20:24:26.003Z,57.66
2022-11-08T20:26:53.210Z,57.79
2022-11-08T20:29:20.873Z,57.89
2022-11-08T20:31:52.679Z,58.02
2022-11-08T20:34:20.088Z,58.04
2022-11-08T20:36:48.136Z,58.05
2022-11-08T20:39:15.789Z,58.43
2022-11-08T20:41:43.428Z,58.39
2022-11-08T20:44:10.848Z,58.43
2022-11-08T20:46:38.868Z,58.27
2022-11-08T20:49:07.006Z,58.10
2022-11-08T20:51:35.725Z,58.22
2022-11-08T20:54:03.246Z,58.08
2022-11-08T20:56:30.969Z,57.49
2022-11-08T20:58:58.396Z,56.89
2022-11-08T21:01:28.698Z,57.08
2022-11-08T21:03:56.386Z,57.19
2022-11-08T21:06:26.212Z,57.33
2022-11-08T21:09:01.852Z,56.57
2022-11-08T21:11:34.838Z,57.14
2022-11-08T21:14:03.090Z,57.32
2022-11-08T21:16:38.298Z,57.56
2022-11-08T21:19:14.390Z,57.22
2022-11-08T21:21:42.225Z,57.44
2022-11-08T21:24:10.018Z,57.17
2022-11-08T21:26:37.969Z,57.28
2022-11-08T21:29:07.873Z,57.08
2022-11-08T21:31:35.138Z,57.02
2022-11-08T21:34:05.142Z,57.20
2022-11-08T21:36:33.571Z,57.26
2022-11-08T21:39:01.950Z,57.41
2022-11-08T21:41:30.125Z,57.02
2022-11-08T21:43:59.069Z,57.33
2022-11-08T21:46:28.315Z,57.28
2022-11-08T21:48:57.650Z,57.28
2022-11-08T21:51:26.055Z,56.91
2022-11-08T21:53:56.090Z,57.34
2022-11-08T21:56:25.247Z,57.25
2022-11-08T21:58:53.907Z,57.15
2022-11-08T22:01:24.309Z,57.28
2022-11-08T22:03:54.728Z,57.09
2022-11-08T22:06:23.093Z,57.19
2022-11-08T22:08:50.518Z,57.38
2022-11-08T22:11:17.605Z,57.39
2022-11-08T22:13:44.720Z,57.18
2022-11-08T22:16:11.602Z,57.01
2022-11-08T22:21:43.556Z,57.03
2022-11-08T22:24:18.485Z,56.80
2022-11-08T22:26:46.118Z,56.91
2022-11-08T22:29:13.633Z,56.93
2022-11-08T22:31:41.037Z,56.80
2022-11-08T22:34:09.473Z,57.00
2022-11-08T22:36:44.094Z,56.85
2022-11-08T22:39:16.840Z,56.97
2022-11-08T22:41:44.531Z,56.88
2022-11-08T22:44:12.876Z,56.84
2022-11-08T22:46:45.037Z,56.72
2022-11-08T22:49:12.973Z,56.79
2022-11-08T22:51:40.841Z,56.87
2022-11-08T22:54:08.235Z,56.92
2022-11-08T22:56:36.260Z,56.79
2022-11-08T22:59:03.652Z,56.90
2022-11-08T23:01:30.552Z,57.11
2022-11-08T23:03:57.989Z,57.22
2022-11-08T23:06:24.868Z,57.17
2022-11-08T23:08:51.840Z,57.02
2022-11-08T23:11:37.553Z,57.03
2022-11-08T23:14:23.627Z,57.14
2022-11-08T23:16:50.529Z,57.23
2022-11-08T23:19:40.578Z,57.35
2022-11-08T23:22:30.609Z,57.52
2022-11-08T23:24:57.828Z,58.01
2022-11-08T23:27:44.329Z,57.87
2022-11-08T23:30:33.413Z,57.99
2022-11-08T23:33:00.591Z,57.90
2022-11-08T23:35:27.665Z,58.21
2022-11-08T23:37:55.229Z,58.35
2022-11-08T23:40:41.081Z,58.17
2022-11-08T23:43:36.931Z,58.39
2022-11-08T23:46:12.120Z,58.66
2022-11-08T23:48:40.318Z,58.68
2022-11-08T23:51:08.006Z,58.74
2022-11-08T23:53:37.392Z,58.81
2022-11-08T23:56:04.748Z,59.09
2022-11-08T23:58:32.581Z,59.16
